Time;durP1;ratioP1;P1;durP2;ratioP2;P2;SDS_P1;SDS_P2;PMS_P1;PMS_P2;Temp;Humidity;BMP_temperature;BMP_pressure;BME280_temperature;BME280_humidity;BME280_pressure;Samples;Min_cycle;Max_cycle;Signal;HPM_P1;HPM_P2
2022/07/13 00:01:45;;;;;;;4.57;1.92;;;;;;;;;;5023425;28;20135;-90
2022/07/13 00:04:11;;;;;;;6.57;2.00;;;20.60;99.90;;;;;;4986954;28;20037;-91
2022/07/13 00:06:37;;;;;;;5.68;1.90;;;20.60;99.90;;;;;;4964368;28;20034;-91
2022/07/13 00:09:03;;;;;;;6.60;2.15;;;20.50;99.90;;;;;;4974805;28;20498;-90
2022/07/13 00:11:29;;;;;;;5.35;2.20;;;20.50;99.90;;;;;;4978496;28;20042;-91
2022/07/13 00:13:55;;;;;;;5.95;2.10;;;20.60;99.90;;;;;;4956998;28;20100;-90
2022/07/13 00:16:21;;;;;;;6.78;2.35;;;20.50;99.90;;;;;;5020294;28;20045;-90
2022/07/13 00:18:46;;;;;;;5.70;2.22;;;20.50;99.90;;;;;;4982881;28;20048;-89
2022/07/13 00:21:12;;;;;;;7.63;2.20;;;20.50;99.90;;;;;;4967100;28;20041;-90
2022/07/13 00:23:38;;;;;;;9.35;2.22;;;20.50;99.90;;;;;;4980209;28;20065;-91
2022/07/13 00:26:03;;;;;;;6.15;2.20;;;20.50;99.90;;;;;;4976016;28;20185;-91
2022/07/13 00:28:29;;;;;;;5.10;2.03;;;20.50;99.90;;;;;;4985780;28;20534;-90
2022/07/13 00:30:55;;;;;;;5.68;2.30;;;20.50;99.90;;;;;;4991751;28;20053;-90
2022/07/13 00:33:20;;;;;;;6.13;2.00;;;20.50;99.90;;;;;;4991118;28;20042;-91
2022/07/13 00:35:46;;;;;;;6.55;2.30;;;20.50;99.90;;;;;;4969001;28;20057;-91
2022/07/13 00:38:12;;;;;;;8.80;2.38;;;20.50;99.90;;;;;;4962773;28;20596;-90
2022/07/13 00:40:37;;;;;;;5.65;2.25;;;20.50;99.90;;;;;;5008880;28;20472;-90
2022/07/13 00:43:03;;;;;;;6.65;2.22;;;20.50;99.90;;;;;;4976467;28;20140;-90
2022/07/13 00:45:29;;;;;;;7.53;2.30;;;20.50;99.90;;;;;;4969398;28;20090;-90
2022/07/13 00:47:55;;;;;;;5.75;2.40;;;20.40;99.90;;;;;;4960419;28;20383;-91
2022/07/13 00:50:21;;;;;;;7.35;2.50;;;20.40;99.90;;;;;;4991788;28;20041;-90
2022/07/13 00:52:47;;;;;;;5.90;2.28;;;20.40;99.90;;;;;;4991170;28;20089;-90
2022/07/13 00:55:14;;;;;;;6.38;2.40;;;20.40;99.90;;;;;;4974098;28;20030;-90
2022/07/13 00:57:39;;;;;;;6.20;2.50;;;20.40;99.90;;;;;;5007239;28;20038;-90
2022/07/13 01:00:13;;;;;;;7.45;2.67;;;20.40;99.90;;;;;;4999853;28;20104;-91
2022/07/13 01:02:44;;;;;;;9.40;2.90;;;20.40;99.90;;;;;;4988470;28;20042;-90
2022/07/13 01:05:11;;;;;;;5.90;2.65;;;20.40;99.90;;;;;;4976239;28;20054;-90
2022/07/13 01:07:37;;;;;;;6.97;2.60;;;20.40;99.90;;;;;;4966939;28;20133;-90
2022/07/13 01:10:05;;;;;;;7.88;2.78;;;20.40;99.90;;;;;;4969782;28;20067;-90
2022/07/13 01:12:32;;;;;;;8.82;3.00;;;20.40;99.90;;;;;;4983124;28;20088;-91
2022/07/13 01:14:58;;;;;;;7.28;3.15;;;20.60;99.90;;;;;;4978790;28;20034;-91
2022/07/13 01:17:26;;;;;;;6.60;2.80;;;20.40;99.90;;;;;;4991140;28;20030;-91
2022/07/13 01:19:53;;;;;;;10.38;3.13;;;20.40;99.90;;;;;;4977429;28;20046;-92
2022/07/13 01:22:23;;;;;;;6.82;2.88;;;20.40;99.90;;;;;;4980189;28;20081;-90
2022/07/13 01:24:49;;;;;;;6.35;2.75;;;20.40;99.90;;;;;;5026575;28;20052;-91
2022/07/13 01:27:16;;;;;;;8.65;3.10;;;20.40;99.90;;;;;;5012904;28;20045;-91
2022/07/13 01:29:42;;;;;;;7.70;3.30;;;20.40;99.90;;;;;;4998202;28;20489;-91
2022/07/13 01:32:08;;;;;;;7.72;3.45;;;20.40;99.90;;;;;;5005652;28;20037;-91
2022/07/13 01:34:34;;;;;;;10.23;3.17;;;20.40;99.90;;;;;;4962491;28;20072;-90
2022/07/13 01:37:01;;;;;;;8.35;3.30;;;21.00;99.90;;;;;;4979219;28;20502;-91
2022/07/13 01:39:27;;;;;;;8.65;3.15;;;20.40;99.90;;;;;;4962471;28;20046;-90
2022/07/13 01:41:53;;;;;;;8.10;3.53;;;20.40;99.90;;;;;;4987534;28;20363;-90
2022/07/13 01:44:18;;;;;;;7.35;3.42;;;20.40;99.90;;;;;;4967918;28;20104;-91
2022/07/13 01:46:44;;;;;;;7.65;3.38;;;20.40;99.90;;;;;;4964296;28;20049;-93
2022/07/13 01:49:10;;;;;;;8.32;3.50;;;20.40;99.90;;;;;;4966886;28;20360;-90
2022/07/13 01:51:36;;;;;;;8.05;3.83;;;20.40;99.90;;;;;;4977498;28;20501;-91
2022/07/13 01:54:02;;;;;;;10.32;3.70;;;20.40;99.90;;;;;;4962111;28;20040;-91
2022/07/13 01:56:28;;;;;;;8.85;4.00;;;20.40;99.90;;;;;;4962938;28;20042;-91
2022/07/13 01:58:53;;;;;;;9.93;3.70;;;20.40;99.90;;;;;;4993616;28;20041;-90
2022/07/13 02:01:19;;;;;;;8.10;3.90;;;20.40;99.90;;;;;;4981131;28;20041;-90
2022/07/13 02:03:45;;;;;;;9.02;3.72;;;20.40;99.90;;;;;;4993212;28;20502;-91
2022/07/13 02:06:11;;;;;;;8.07;3.50;;;20.40;99.90;;;;;;4995377;28;20049;-90
2022/07/13 02:08:37;;;;;;;8.10;3.75;;;20.40;99.90;;;;;;4995507;28;20089;-90
2022/07/13 02:11:03;;;;;;;9.15;4.15;;;20.30;99.90;;;;;;4970485;28;20050;-90
2022/07/13 02:13:29;;;;;;;10.55;4.00;;;20.30;99.90;;;;;;4997381;28;20038;-90
2022/07/13 02:15:54;;;;;;;9.40;4.22;;;20.30;99.90;;;;;;4978105;28;20120;-91
2022/07/13 02:18:20;;;;;;;9.10;4.03;;;20.30;99.90;;;;;;4980977;28;20049;-90
2022/07/13 02:20:46;;;;;;;8.48;4.10;;;20.30;99.90;;;;;;4959042;28;20596;-90
2022/07/13 02:23:12;;;;;;;9.82;4.30;;;20.30;99.90;;;;;;4950115;28;20106;-91
2022/07/13 02:25:38;;;;;;;7.93;4.10;;;20.30;99.90;;;;;;4977865;28;20042;-91
2022/07/13 02:28:05;;;;;;;8.65;4.38;;;20.30;99.90;;;;;;4976515;28;20050;-90
2022/07/13 02:30:31;;;;;;;10.10;4.82;;;20.10;99.90;;;;;;4968301;28;20073;-91
2022/07/13 02:32:56;;;;;;;10.55;4.70;;;20.30;99.90;;;;;;4983468;28;20180;-91
2022/07/13 02:35:22;;;;;;;9.95;4.97;;;20.30;99.90;;;;;;4964278;28;20074;-88
2022/07/13 02:37:48;;;;;;;9.73;5.22;;;20.30;99.90;;;;;;4964446;28;20514;-90
2022/07/13 02:40:14;;;;;;;8.75;4.80;;;20.30;99.90;;;;;;4987144;28;20034;-91
2022/07/13 02:42:40;;;;;;;9.55;5.20;;;20.30;99.90;;;;;;4980211;28;20459;-90
2022/07/13 02:45:06;;;;;;;9.63;5.00;;;20.30;99.90;;;;;;4958253;28;20123;-90
2022/07/13 02:47:32;;;;;;;8.82;4.72;;;20.20;99.90;;;;;;4996233;28;20483;-91
2022/07/13 02:49:58;;;;;;;9.60;5.13;;;20.20;99.90;;;;;;4966021;28;20038;-90
2022/07/13 02:52:24;;;;;;;9.73;4.93;;;20.20;99.90;;;;;;4989830;28;20054;-90
2022/07/13 02:54:49;;;;;;;9.82;5.50;;;20.20;99.90;;;;;;4958603;28;20470;-93
2022/07/13 02:57:15;;;;;;;9.02;4.78;;;20.20;99.90;;;;;;4953730;28;20034;-91
2022/07/13 02:59:41;;;;;;;9.65;4.93;;;20.20;99.90;;;;;;4957215;28;20046;-90
2022/07/13 03:02:07;;;;;;;10.23;5.00;;;20.20;99.90;;;;;;4971349;28;20042;-90
2022/07/13 03:04:34;;;;;;;8.88;5.05;;;20.20;99.90;;;;;;4973828;28;20047;-90
2022/07/13 03:07:00;;;;;;;9.75;4.97;;;20.20;99.90;;;;;;4981786;28;20477;-91
2022/07/13 03:09:27;;;;;;;10.60;5.35;;;20.20;99.90;;;;;;4982447;28;20411;-91
2022/07/13 03:11:53;;;;;;;10.05;5.10;;;20.20;99.90;;;;;;4997149;28;20046;-90
2022/07/13 03:14:19;;;;;;;9.80;5.10;;;20.20;99.90;;;;;;4973385;28;20038;-90
2022/07/13 03:16:45;;;;;;;9.63;4.93;;;20.20;99.90;;;;;;4980784;28;20069;-90
2022/07/13 03:19:10;;;;;;;8.55;4.97;;;20.20;99.90;;;;;;4973661;28;20038;-91
2022/07/13 03:21:36;;;;;;;10.65;5.07;;;20.20;99.90;;;;;;4985121;28;20126;-91
2022/07/13 03:24:03;;;;;;;9.90;5.43;;;20.30;99.90;;;;;;4972363;28;20041;-90
2022/07/13 03:26:29;;;;;;;9.10;5.30;;;20.20;99.90;;;;;;4994592;28;20146;-89
2022/07/13 03:28:55;;;;;;;10.38;5.65;;;20.30;99.90;;;;;;4964567;28;20078;-89
2022/07/13 03:31:20;;;;;;;9.82;5.00;;;20.20;99.90;;;;;;4954026;28;20074;-90
2022/07/13 03:33:46;;;;;;;9.43;4.90;;;20.20;99.90;;;;;;4976140;28;20471;-90
2022/07/13 03:36:13;;;;;;;9.30;5.07;;;20.20;99.90;;;;;;4996697;28;20151;-90
2022/07/13 03:38:38;;;;;;;12.57;5.68;;;20.20;99.90;;;;;;4976403;28;20091;-91
2022/07/13 03:41:04;;;;;;;9.38;4.97;;;20.20;99.90;;;;;;4978337;28;20037;-90
2022/07/13 03:43:31;;;;;;;9.02;4.90;;;20.20;99.90;;;;;;4976879;28;20042;-90
2022/07/13 03:45:57;;;;;;;9.63;5.22;;;20.20;99.90;;;;;;4995892;28;20049;-90
2022/07/13 03:48:22;;;;;;;9.25;5.10;;;20.20;99.90;;;;;;4994867;28;20038;-91
2022/07/13 03:50:49;;;;;;;9.40;5.05;;;20.20;99.90;;;;;;4974768;28;20046;-90
2022/07/13 03:53:15;;;;;;;10.75;4.93;;;20.20;99.90;;;;;;4957207;28;20034;-91
2022/07/13 03:55:42;;;;;;;8.98;5.05;;;20.20;99.90;;;;;;4979085;28;20498;-90
2022/07/13 03:58:10;;;;;;;9.52;5.32;;;20.20;99.90;;;;;;4980266;28;20042;-91
2022/07/13 04:00:36;;;;;;;9.25;5.03;;;20.20;99.90;;;;;;4986301;28;20101;-90
2022/07/13 04:03:02;;;;;;;9.38;5.38;;;20.20;99.90;;;;;;4963522;28;20537;-90
2022/07/13 04:05:27;;;;;;;10.85;5.07;;;20.20;99.90;;;;;;4988126;28;20040;-90
2022/07/13 04:07:53;;;;;;;10.48;4.80;;;20.20;99.90;;;;;;4973987;28;20152;-91
2022/07/13 04:10:19;;;;;;;10.68;5.20;;;20.20;99.90;;;;;;4974407;28;20066;-90
2022/07/13 04:12:46;;;;;;;9.48;4.75;;;20.20;99.90;;;;;;4963481;28;20041;-90
2022/07/13 04:15:12;;;;;;;11.02;4.93;;;20.20;99.90;;;;;;4956195;28;20101;-90
2022/07/13 04:17:39;;;;;;;9.93;4.85;;;20.20;99.90;;;;;;5000355;28;20042;-91
2022/07/13 04:20:06;;;;;;;10.02;4.80;;;20.20;99.90;;;;;;4957147;28;20463;-91
2022/07/13 04:22:32;;;;;;;9.60;5.05;;;20.20;99.90;;;;;;4980695;28;20108;-90
2022/07/13 04:24:58;;;;;;;10.93;4.78;;;20.20;99.90;;;;;;4978850;28;20046;-90
2022/07/13 04:27:23;;;;;;;9.02;4.60;;;20.20;99.90;;;;;;4969310;28;20043;-91
2022/07/13 04:29:49;;;;;;;10.57;4.93;;;20.20;99.90;;;;;;4956079;28;20042;-90
2022/07/13 04:32:15;;;;;;;9.60;5.22;;;20.20;99.90;;;;;;4996702;28;20038;-90
2022/07/13 04:34:41;;;;;;;8.73;4.85;;;20.20;99.90;;;;;;4965281;28;20069;-91
2022/07/13 04:37:06;;;;;;;10.18;4.85;;;20.30;99.90;;;;;;4985604;28;20069;-90
2022/07/13 04:39:32;;;;;;;8.93;4.85;;;20.30;99.90;;;;;;4978016;28;20049;-91
2022/07/13 04:41:59;;;;;;;10.10;5.40;;;20.30;99.90;;;;;;4974966;28;20061;-90
2022/07/13 04:44:28;;;;;;;9.75;5.43;;;20.30;99.90;;;;;;4970719;28;20035;-90
2022/07/13 04:46:54;;;;;;;10.73;4.93;;;20.80;99.90;;;;;;4975371;28;20053;-90
2022/07/13 04:49:20;;;;;;;9.65;5.05;;;20.20;99.90;;;;;;4976958;28;20198;-90
2022/07/13 04:51:47;;;;;;;9.75;4.75;;;20.30;99.90;;;;;;4993640;28;20121;-90
2022/07/13 04:54:16;;;;;;;9.13;4.75;;;20.30;99.90;;;;;;4971979;28;20050;-90
2022/07/13 04:56:41;;;;;;;8.73;4.72;;;20.30;99.90;;;;;;4977751;28;20030;-90
2022/07/13 04:59:07;;;;;;;9.13;4.63;;;20.30;99.90;;;;;;4982528;28;20034;-91
2022/07/13 05:01:33;;;;;;;9.60;4.72;;;20.30;99.90;;;;;;4960924;28;20456;-91
2022/07/13 05:03:59;;;;;;;10.57;4.75;;;20.30;99.90;;;;;;4974944;28;20053;-91
2022/07/13 05:06:24;;;;;;;8.50;4.32;;;20.40;99.90;;;;;;4991362;28;20421;-91
2022/07/13 05:08:50;;;;;;;9.05;4.75;;;20.40;99.90;;;;;;4961988;28;20047;-91
2022/07/13 05:11:16;;;;;;;10.15;4.72;;;20.40;99.90;;;;;;4990570;28;20057;-91
2022/07/13 05:13:42;;;;;;;9.48;4.45;;;20.40;99.90;;;;;;4989556;28;20058;-90
2022/07/13 05:16:08;;;;;;;9.63;4.65;;;20.40;99.90;;;;;;4975903;28;20117;-91
2022/07/13 05:18:34;;;;;;;8.88;4.43;;;20.40;99.90;;;;;;4968967;28;20042;-90
2022/07/13 05:21:00;;;;;;;8.63;4.68;;;20.40;99.90;;;;;;4991012;28;20174;-92
2022/07/13 05:23:26;;;;;;;8.40;4.35;;;20.40;99.90;;;;;;4975961;28;20148;-93
2022/07/13 05:25:51;;;;;;;8.88;4.22;;;20.40;99.90;;;;;;4980096;28;20522;-90
2022/07/13 05:28:17;;;;;;;10.43;4.90;;;20.40;99.90;;;;;;4964431;28;20078;-92
2022/07/13 05:30:43;;;;;;;8.65;4.60;;;20.40;99.90;;;;;;4947715;28;20506;-90
2022/07/13 05:33:08;;;;;;;8.52;4.70;;;20.40;99.90;;;;;;4940801;28;20037;-91
2022/07/13 05:35:34;;;;;;;9.00;4.40;;;20.40;99.90;;;;;;4975994;28;20042;-92
2022/07/13 05:38:00;;;;;;;10.18;4.85;;;20.40;99.90;;;;;;4955659;28;20505;-91
2022/07/13 05:40:26;;;;;;;9.27;4.80;;;20.40;99.90;;;;;;4969749;28;20046;-92
2022/07/13 05:42:52;;;;;;;8.10;4.00;;;20.40;99.90;;;;;;4974866;28;20049;-90
2022/07/13 05:45:19;;;;;;;10.02;4.43;;;20.40;99.90;;;;;;4974392;28;20490;-90
2022/07/13 05:47:45;;;;;;;9.02;4.40;;;20.40;99.90;;;;;;4974527;28;20042;-90
2022/07/13 05:50:15;;;;;;;9.80;4.45;;;20.40;99.90;;;;;;4974193;28;20035;-90
2022/07/13 05:52:41;;;;;;;10.35;4.55;;;20.40;99.90;;;;;;4975864;28;20046;-91
2022/07/13 05:55:08;;;;;;;9.50;4.63;;;20.50;99.90;;;;;;4985402;28;20047;-91
2022/07/13 05:57:35;;;;;;;9.02;4.72;;;20.50;99.90;;;;;;4975410;28;20042;-92
2022/07/13 06:00:02;;;;;;;9.13;4.90;;;20.50;99.90;;;;;;4974869;28;20074;-91
2022/07/13 06:02:27;;;;;;;10.10;4.82;;;20.50;99.90;;;;;;4943798;28;20457;-91
2022/07/13 06:04:53;;;;;;;9.75;5.60;;;20.50;99.90;;;;;;4991771;28;20089;-91
2022/07/13 06:07:19;;;;;;;9.95;5.05;;;20.50;99.90;;;;;;4973057;28;20521;-91
2022/07/13 06:09:44;;;;;;;9.10;5.10;;;20.50;99.90;;;;;;4963456;28;20054;-91
2022/07/13 06:12:10;;;;;;;9.75;4.93;;;20.50;99.90;;;;;;4959114;28;20121;-91
2022/07/13 06:14:36;;;;;;;9.50;5.00;;;20.50;99.90;;;;;;4955647;28;20494;-91
2022/07/13 06:17:01;;;;;;;8.90;5.22;;;20.50;99.90;;;;;;4974941;28;20104;-91
2022/07/13 06:19:27;;;;;;;9.48;4.97;;;20.50;99.90;;;;;;4958456;28;20100;-91
2022/07/13 06:21:53;;;;;;;9.82;5.35;;;20.50;99.90;;;;;;5007716;28;20038;-91
2022/07/13 06:24:18;;;;;;;10.40;5.47;;;20.60;99.90;;;;;;4967966;28;20121;-89
2022/07/13 06:26:45;;;;;;;11.20;5.38;;;20.60;99.90;;;;;;4958886;28;20042;-91
2022/07/13 06:29:10;;;;;;;10.27;5.88;;;20.60;99.90;;;;;;4958657;28;20034;-90
2022/07/13 06:31:36;;;;;;;9.27;5.13;;;20.60;99.90;;;;;;4974212;28;20069;-90
2022/07/13 06:34:02;;;;;;;11.38;5.93;;;20.70;99.90;;;;;;4942575;28;20065;-90
2022/07/13 06:36:28;;;;;;;10.75;5.70;;;20.70;99.90;;;;;;4958593;28;20129;-90
2022/07/13 06:38:53;;;;;;;11.43;5.97;;;20.80;99.90;;;;;;4973579;28;20042;-90
2022/07/13 06:41:19;;;;;;;12.57;6.53;;;20.90;99.90;;;;;;4957587;28;20042;-91
2022/07/13 06:43:45;;;;;;;11.05;6.35;;;20.90;99.90;;;;;;4989829;28;20157;-90
2022/07/13 06:46:11;;;;;;;12.82;6.70;;;21.00;99.90;;;;;;4973985;28;20039;-91
2022/07/13 06:48:37;;;;;;;13.15;6.63;;;21.10;99.90;;;;;;4973550;28;20034;-91
2022/07/13 06:51:03;;;;;;;11.70;6.53;;;21.10;99.90;;;;;;4973482;28;20422;-89
2022/07/13 06:53:29;;;;;;;10.48;6.38;;;21.20;99.90;;;;;;4957964;28;20041;-90
2022/07/13 06:55:55;;;;;;;10.85;6.57;;;21.40;99.90;;;;;;4974251;28;20038;-91
2022/07/13 06:58:21;;;;;;;11.25;6.50;;;21.40;99.90;;;;;;4957075;28;20054;-91
2022/07/13 07:00:47;;;;;;;11.30;6.88;;;21.70;99.90;;;;;;4938330;28;20113;-91
2022/07/13 07:03:13;;;;;;;11.82;6.50;;;21.80;99.90;;;;;;4957757;28;20117;-90
2022/07/13 07:05:39;;;;;;;13.02;7.20;;;21.90;99.90;;;;;;4974108;28;20126;-90
2022/07/13 07:08:05;;;;;;;11.90;6.93;;;22.00;99.90;;;;;;4957532;28;20109;-91
2022/07/13 07:10:30;;;;;;;11.90;6.72;;;22.20;99.90;;;;;;4977972;28;20522;-90
2022/07/13 07:12:56;;;;;;;11.32;6.13;;;22.30;99.90;;;;;;4974038;28;20046;-91
2022/07/13 07:15:23;;;;;;;12.00;6.25;;;22.40;99.90;;;;;;4990282;28;20042;-91
2022/07/13 07:17:49;;;;;;;13.10;6.13;;;22.40;99.90;;;;;;4958136;28;20061;-93
2022/07/13 07:20:16;;;;;;;12.30;6.70;;;22.40;99.90;;;;;;4965706;28;20034;-93
2022/07/13 07:22:43;;;;;;;14.23;6.68;;;22.40;99.90;;;;;;4973808;28;20100;-92
2022/07/13 07:25:09;;;;;;;11.57;6.47;;;22.50;99.90;;;;;;4974058;28;20050;-93
2022/07/13 07:27:35;;;;;;;12.10;6.45;;;22.60;99.90;;;;;;4974123;28;20097;-93
2022/07/13 07:30:02;;;;;;;12.90;6.85;;;22.70;99.90;;;;;;4974595;28;20448;-93
2022/07/13 07:32:28;;;;;;;13.30;6.80;;;22.70;99.90;;;;;;4989625;28;20099;-93
2022/07/13 07:34:54;;;;;;;12.60;6.60;;;22.90;99.90;;;;;;4989878;28;20050;-92
2022/07/13 07:37:20;;;;;;;15.60;7.18;;;23.00;99.90;;;;;;4955099;28;20047;-93
2022/07/13 07:39:47;;;;;;;13.60;6.93;;;23.10;99.90;;;;;;4973746;28;20046;-93
2022/07/13 07:42:12;;;;;;;11.77;6.25;;;23.10;99.90;;;;;;4958192;28;20046;-92
2022/07/13 07:44:38;;;;;;;15.52;7.03;;;23.20;99.90;;;;;;4957749;28;20109;-92
2022/07/13 07:47:04;;;;;;;13.98;6.93;;;23.20;99.90;;;;;;4941987;28;20109;-92
2022/07/13 07:49:29;;;;;;;13.25;7.15;;;23.20;99.90;;;;;;4951029;28;20043;-92
2022/07/13 07:51:55;;;;;;;13.38;6.70;;;23.30;99.90;;;;;;4974072;28;20046;-92
2022/07/13 07:54:21;;;;;;;10.95;5.53;;;23.30;99.90;;;;;;4990159;28;20108;-92
2022/07/13 07:56:48;;;;;;;11.60;6.05;;;23.40;99.90;;;;;;4957811;28;20125;-93
2022/07/13 07:59:14;;;;;;;12.77;5.80;;;23.50;99.90;;;;;;4941888;28;20049;-91
2022/07/13 08:01:41;;;;;;;12.63;6.30;;;23.60;99.90;;;;;;4984170;28;20564;-92
2022/07/13 08:04:07;;;;;;;13.77;5.35;;;23.60;99.90;;;;;;4972852;28;20050;-93
2022/07/13 08:06:34;;;;;;;11.32;5.43;;;23.60;99.90;;;;;;4989677;28;20046;-92
2022/07/13 08:09:00;;;;;;;11.80;5.25;;;23.70;99.90;;;;;;4972050;28;20130;-90
2022/07/13 08:11:26;;;;;;;12.38;5.15;;;23.90;99.90;;;;;;4957170;28;20125;-91
2022/07/13 08:13:52;;;;;;;11.88;5.60;;;24.00;99.90;;;;;;4988938;28;20042;-92
2022/07/13 08:16:19;;;;;;;11.98;6.13;;;24.00;99.90;;;;;;4973284;28;20039;-91
2022/07/13 08:18:45;;;;;;;13.45;5.65;;;24.10;99.90;;;;;;4973648;28;20574;-91
2022/07/13 08:21:11;;;;;;;11.52;5.60;;;24.00;99.90;;;;;;4988363;28;20034;-91
2022/07/13 08:23:52;;;;;;;12.55;5.93;;;24.10;99.90;;;;;;4980363;28;20046;-91
2022/07/13 08:26:27;;;;;;;12.43;5.60;;;24.10;99.90;;;;;;4973411;28;20034;-92
2022/07/13 08:28:55;;;;;;;10.80;5.65;;;24.20;99.90;;;;;;4967486;28;20038;-91
2022/07/13 08:31:22;;;;;;;10.40;4.93;;;24.20;99.90;;;;;;4988745;28;20038;-91
2022/07/13 08:39:18;;;;;;;11.63;5.63;;;24.50;99.90;;;;;;4985206;28;20046;-90
2022/07/13 08:41:44;;;;;;;11.55;5.63;;;24.50;99.90;;;;;;4988931;28;20101;-91
2022/07/13 08:44:10;;;;;;;12.05;6.07;;;24.60;99.90;;;;;;4990075;28;20054;-93
2022/07/13 08:46:36;;;;;;;11.75;5.60;;;24.60;99.90;;;;;;4973450;28;20053;-91
2022/07/13 08:49:02;;;;;;;10.45;5.25;;;24.60;99.90;;;;;;4989080;28;20411;-91
2022/07/13 08:51:31;;;;;;;11.40;5.20;;;24.60;99.90;;;;;;4957662;28;20049;-92
2022/07/13 08:53:57;;;;;;;12.82;5.45;;;24.70;99.90;;;;;;4988948;28;20046;-90
2022/07/13 08:56:23;;;;;;;11.52;4.88;;;24.70;99.90;;;;;;4989195;28;20053;-92
2022/07/13 08:58:49;;;;;;;9.98;4.25;;;24.80;99.90;;;;;;4972189;28;20038;-93
2022/07/13 09:01:15;;;;;;;11.38;4.80;;;24.80;99.90;;;;;;4989482;28;20037;-93
2022/07/13 09:03:41;;;;;;;10.52;4.97;;;24.90;99.90;;;;;;4989267;28;20053;-91
2022/07/13 09:06:07;;;;;;;10.17;4.30;;;24.80;99.90;;;;;;4989275;28;20061;-92
2022/07/13 09:08:43;;;;;;;10.52;4.60;;;24.90;99.90;;;;;;4958243;28;20395;-92
2022/07/13 09:11:10;;;;;;;8.65;3.92;;;24.90;99.90;;;;;;4979584;28;20034;-91
2022/07/13 09:13:41;;;;;;;10.38;4.15;;;25.00;99.90;;;;;;4975984;28;20041;-92
2022/07/13 09:16:24;;;;;;;7.97;2.72;;;25.10;99.90;;;;;;4980214;28;20065;-92
2022/07/13 09:18:54;;;;;;;7.25;2.88;;;25.30;99.90;;;;;;4979365;28;20560;-91
2022/07/13 09:21:23;;;;;;;8.23;2.90;;;25.40;99.90;;;;;;5019475;28;20042;-91
2022/07/13 09:23:58;;;;;;;8.80;3.55;;;25.40;99.90;;;;;;4972485;28;20045;-91
2022/07/13 09:26:44;;;;;;;9.40;3.40;;;25.50;99.90;;;;;;4963382;28;20112;-91
2022/07/13 09:29:13;;;;;;;8.95;3.38;;;25.50;99.90;;;;;;4979707;28;20148;-93
2022/07/13 09:31:52;;;;;;;10.70;3.20;;;25.60;99.90;;;;;;4985477;28;20038;-92
2022/07/13 09:34:19;;;;;;;10.32;3.50;;;25.60;99.90;;;;;;5004346;28;20118;-93
2022/07/13 09:36:45;;;;;;;7.93;3.30;;;25.70;99.90;;;;;;4982620;28;20116;-92
2022/07/13 09:39:11;;;;;;;10.82;3.92;;;25.70;99.90;;;;;;4962322;28;20486;-91
2022/07/13 09:41:36;;;;;;;7.53;3.08;;;25.70;99.90;;;;;;4969738;28;20073;-93
2022/07/13 09:47:03;;;;;;;7.88;3.05;;;25.70;99.90;;;;;;5000313;28;20170;-92
2022/07/13 09:49:31;;;;;;;8.57;3.08;;;25.80;99.90;;;;;;5001127;28;20502;-92
2022/07/13 09:51:58;;;;;;;10.43;3.80;;;25.80;99.90;;;;;;4999518;28;20037;-92
2022/07/13 09:54:29;;;;;;;9.55;3.00;;;25.90;99.90;;;;;;4979251;28;20113;-92
2022/07/13 09:56:58;;;;;;;10.52;3.35;;;26.00;99.90;;;;;;4979355;28;20265;-93
2022/07/13 09:59:25;;;;;;;7.50;3.40;;;26.00;99.90;;;;;;4962968;28;20186;-91
2022/07/13 10:01:52;;;;;;;9.30;3.42;;;26.00;99.90;;;;;;4978719;28;20038;-91
2022/07/13 10:04:19;;;;;;;9.25;2.97;;;26.00;99.90;;;;;;4995188;28;20050;-90
2022/07/13 10:06:46;;;;;;;8.15;3.40;;;26.10;99.90;;;;;;4979121;28;20091;-93
2022/07/13 10:09:12;;;;;;;8.20;3.05;;;26.00;99.90;;;;;;4961481;28;20050;-91
2022/07/13 10:11:37;;;;;;;9.98;3.40;;;26.00;99.90;;;;;;4963033;28;20103;-93
2022/07/13 10:14:04;;;;;;;8.18;3.20;;;26.10;99.90;;;;;;4979265;28;20034;-93
2022/07/13 10:16:32;;;;;;;7.38;2.85;;;26.10;99.90;;;;;;4973397;28;20041;-93
2022/07/13 10:19:07;;;;;;;8.68;2.80;;;26.10;99.90;;;;;;4989705;28;20121;-93
2022/07/13 10:22:02;;;;;;;7.90;2.85;;;26.10;99.90;;;;;;4993977;28;20126;-92
2022/07/13 10:24:28;;;;;;;10.20;2.83;;;26.10;99.90;;;;;;4986923;28;20042;-93
2022/07/13 10:27:34;;;;;;;8.68;3.00;;;26.10;99.90;;;;;;5007854;28;20046;-91
2022/07/13 10:30:16;;;;;;;7.05;2.50;;;26.10;99.90;;;;;;4973958;28;20060;-94
2022/07/13 10:32:42;;;;;;;6.55;2.38;;;26.10;99.90;;;;;;4979749;28;20042;-93
2022/07/13 10:35:11;;;;;;;8.32;2.75;;;26.10;99.90;;;;;;4977521;28;20038;-92
2022/07/13 10:37:55;;;;;;;7.05;2.50;;;26.10;99.90;;;;;;5010587;28;20517;-91
2022/07/13 10:40:26;;;;;;;6.40;2.40;;;26.10;99.90;;;;;;5028447;28;20578;-93
2022/07/13 10:42:54;;;;;;;6.53;2.30;;;26.10;99.90;;;;;;4995725;28;20046;-92
2022/07/13 10:45:32;;;;;;;6.90;2.30;;;26.20;99.90;;;;;;4982876;28;20092;-93
2022/07/13 10:47:59;;;;;;;10.30;2.80;;;26.20;99.90;;;;;;4978022;28;20129;-93
2022/07/13 10:50:34;;;;;;;6.45;2.30;;;26.20;99.90;;;;;;4980217;28;20099;-92
2022/07/13 10:53:01;;;;;;;6.53;2.65;;;26.30;99.90;;;;;;4978296;28;20460;-93
2022/07/13 10:55:30;;;;;;;7.50;2.40;;;26.30;99.90;;;;;;4996529;28;20096;-92
2022/07/13 10:57:56;;;;;;;7.32;2.28;;;26.30;99.90;;;;;;4964247;28;20041;-93
2022/07/13 11:00:37;;;;;;;6.18;2.40;;;26.20;99.90;;;;;;4996031;28;20042;-94
2022/07/13 11:03:06;;;;;;;7.40;2.60;;;26.20;99.90;;;;;;4975562;28;20410;-93
2022/07/13 11:05:36;;;;;;;5.72;2.10;;;26.30;99.90;;;;;;4964162;28;20046;-93
2022/07/13 11:08:16;;;;;;;9.07;2.63;;;26.50;99.90;;;;;;4961604;28;20049;-91
2022/07/13 11:10:42;;;;;;;5.88;2.40;;;26.50;99.90;;;;;;4963698;28;20442;-92
2022/07/13 11:13:10;;;;;;;6.90;2.30;;;26.60;99.90;;;;;;4978198;28;20049;-93
2022/07/13 11:15:53;;;;;;;8.68;3.00;;;26.50;99.90;;;;;;4995762;28;20113;-92
2022/07/13 11:18:31;;;;;;;8.80;2.70;;;26.50;99.90;;;;;;4995352;28;20061;-91
2022/07/13 11:20:59;;;;;;;7.05;2.85;;;26.50;99.90;;;;;;4995327;28;20053;-94
2022/07/13 11:26:33;;;;;;;9.70;2.65;;;26.60;99.90;;;;;;4994830;28;20053;-93
2022/07/13 11:29:06;;;;;;;7.82;2.90;;;26.60;99.90;;;;;;4979735;28;20042;-95
2022/07/13 11:31:32;;;;;;;7.07;2.60;;;26.50;99.90;;;;;;4978804;28;20049;-91
2022/07/13 11:33:57;;;;;;;7.45;2.58;;;26.50;99.90;;;;;;4963177;28;20034;-93
2022/07/13 11:36:24;;;;;;;9.95;2.50;;;26.40;99.90;;;;;;4980384;28;20397;-93
2022/07/13 11:38:51;;;;;;;6.47;2.00;;;26.20;99.90;;;;;;4986903;28;20033;-91
2022/07/13 11:41:21;;;;;;;7.03;2.50;;;26.00;99.90;;;;;;4963904;28;20038;-93
2022/07/13 11:43:53;;;;;;;6.55;2.28;;;26.00;99.90;;;;;;4963399;28;20146;-93
2022/07/13 11:46:27;;;;;;;6.68;2.47;;;25.80;99.90;;;;;;4978631;28;20113;-91
2022/07/13 11:48:59;;;;;;;7.45;2.47;;;26.00;99.90;;;;;;4962044;28;20038;-94
2022/07/13 11:51:25;;;;;;;;;;;25.90;99.90;;;;;;4994871;28;20041;-94
2022/07/13 11:53:51;;;;;;;6.43;2.50;;;25.70;99.90;;;;;;4994543;28;19918;-93
2022/07/13 11:56:17;;;;;;;7.25;2.20;;;25.80;99.90;;;;;;4991464;28;20049;-92
2022/07/13 11:58:45;;;;;;;6.50;2.25;;;25.90;99.90;;;;;;4978482;28;20598;-93
2022/07/13 12:01:13;;;;;;;5.85;1.90;;;25.70;99.90;;;;;;4962781;28;20078;-93
2022/07/13 12:03:40;;;;;;;6.35;2.20;;;25.80;99.90;;;;;;4986955;28;20038;-92
2022/07/13 12:06:09;;;;;;;10.18;2.70;;;25.80;99.90;;;;;;4961998;28;20050;-92
2022/07/13 12:08:38;;;;;;;9.80;2.28;;;25.90;99.90;;;;;;4994751;28;20907;-91
2022/07/13 12:11:06;;;;;;;7.57;2.50;;;25.80;99.90;;;;;;4978157;28;20498;-93
2022/07/13 12:13:34;;;;;;;8.18;2.45;;;25.70;99.90;;;;;;4975594;28;20403;-92
2022/07/13 12:16:00;;;;;;;7.63;2.20;;;25.70;99.90;;;;;;4991712;28;20072;-93
2022/07/13 12:18:26;;;;;;;7.35;2.15;;;25.80;99.90;;;;;;4978066;28;20046;-91
2022/07/13 12:20:52;;;;;;;6.75;2.05;;;25.70;99.90;;;;;;4989446;28;20033;-93
2022/07/13 12:23:18;;;;;;;6.30;2.25;;;25.70;99.90;;;;;;4961796;28;20562;-92
2022/07/13 12:25:44;;;;;;;8.45;2.50;;;25.50;99.90;;;;;;4975467;28;20069;-91
2022/07/13 12:28:11;;;;;;;7.07;1.90;;;25.40;99.90;;;;;;4962064;28;20080;-94
2022/07/13 12:30:55;;;;;;;7.05;2.20;;;25.10;99.90;;;;;;4995073;28;20490;-91
2022/07/13 12:33:23;;;;;;;9.73;2.20;;;25.30;99.90;;;;;;4994118;28;20046;-93
2022/07/13 12:36:04;;;;;;;7.88;2.17;;;25.10;99.90;;;;;;4958143;28;20570;-94
2022/07/13 12:38:31;;;;;;;8.10;2.13;;;25.20;99.90;;;;;;4994573;28;20128;-93
2022/07/13 12:41:00;;;;;;;7.45;2.17;;;25.10;99.90;;;;;;4977343;28;20129;-93
2022/07/13 12:43:26;;;;;;;10.38;2.60;;;25.00;99.90;;;;;;4961968;28;20129;-92
2022/07/13 12:46:00;;;;;;;8.30;2.10;;;24.60;99.90;;;;;;4988355;28;20125;-92
2022/07/13 12:48:35;;;;;;;8.32;2.42;;;24.90;99.90;;;;;;4994090;28;20049;-92
2022/07/13 12:51:04;;;;;;;8.50;2.28;;;24.90;99.90;;;;;;4997605;28;20041;-93
2022/07/13 12:53:49;;;;;;;8.05;2.30;;;24.80;99.90;;;;;;4979306;28;20042;-92
2022/07/13 12:56:16;;;;;;;12.75;2.47;;;24.70;99.90;;;;;;4977198;28;20030;-93